sensor_id;sensor_type;location;lat;lon;timestamp;pressure;altitude;pressure_sealevel;temperature;humidity
67015;BME280;1033;52.560;13.374;2023-12-28T00:00:05;100500.47;;;4.87;100.00
67015;BME280;1033;52.560;13.374;2023-12-28T00:02:35;100500.84;;;4.84;100.00
67015;BME280;1033;52.560;13.374;2023-12-28T00:05:05;100503.25;;;5.02;100.00
67015;BME280;1033;52.560;13.374;2023-12-28T00:07:34;100508.84;;;4.92;100.00
67015;BME280;1033;52.560;13.374;2023-12-28T00:10:03;100500.97;;;4.91;100.00
67015;BME280;1033;52.560;13.374;2023-12-28T00:12:32;100489.91;;;4.94;100.00
67015;BME280;1033;52.560;13.374;2023-12-28T00:15:01;100474.06;;;5.07;100.00
67015;BME280;1033;52.560;13.374;2023-12-28T00:17:30;100477.41;;;5.09;100.00
67015;BME280;1033;52.560;13.374;2023-12-28T00:20:00;100469.78;;;4.98;100.00
67015;BME280;1033;52.560;13.374;2023-12-28T00:25:48;100467.13;;;4.90;100.00
67015;BME280;1033;52.560;13.374;2023-12-28T00:28:17;100463.09;;;4.94;100.00
67015;BME280;1033;52.560;13.374;2023-12-28T00:30:49;100451.22;;;4.88;100.00
67015;BME280;1033;52.560;13.374;2023-12-28T00:33:18;100464.50;;;5.04;100.00
67015;BME280;1033;52.560;13.374;2023-12-28T00:35:48;100449.47;;;5.03;100.00
67015;BME280;1033;52.560;13.374;2023-12-28T00:38:17;100457.38;;;4.97;100.00
67015;BME280;1033;52.560;13.374;2023-12-28T00:40:45;100463.03;;;5.02;100.00
67015;BME280;1033;52.560;13.374;2023-12-28T00:43:15;100462.38;;;5.00;100.00
67015;BME280;1033;52.560;13.374;2023-12-28T00:45:44;100459.88;;;4.98;100.00
67015;BME280;1033;52.560;13.374;2023-12-28T00:48:14;100452.72;;;5.13;100.00
67015;BME280;1033;52.560;13.374;2023-12-28T00:50:43;100433.22;;;4.97;100.00
67015;BME280;1033;52.560;13.374;2023-12-28T00:53:13;100452.03;;;5.19;100.00
67015;BME280;1033;52.560;13.374;2023-12-28T00:55:42;100458.75;;;5.15;100.00
67015;BME280;1033;52.560;13.374;2023-12-28T00:58:11;100465.97;;;5.15;100.00
67015;BME280;1033;52.560;13.374;2023-12-28T01:00:40;100472.94;;;5.24;100.00
67015;BME280;1033;52.560;13.374;2023-12-28T01:03:09;100477.16;;;5.18;100.00
67015;BME280;1033;52.560;13.374;2023-12-28T01:05:38;100473.84;;;5.16;100.00
67015;BME280;1033;52.560;13.374;2023-12-28T01:08:06;100472.03;;;5.09;100.00
67015;BME280;1033;52.560;13.374;2023-12-28T01:10:37;100470.50;;;5.14;100.00
67015;BME280;1033;52.560;13.374;2023-12-28T01:13:05;100471.31;;;5.15;100.00
67015;BME280;1033;52.560;13.374;2023-12-28T01:15:34;100470.31;;;5.16;100.00
67015;BME280;1033;52.560;13.374;2023-12-28T01:18:03;100470.56;;;5.06;100.00
67015;BME280;1033;52.560;13.374;2023-12-28T01:20:32;100465.81;;;5.08;100.00
67015;BME280;1033;52.560;13.374;2023-12-28T01:23:04;100457.00;;;5.00;100.00
67015;BME280;1033;52.560;13.374;2023-12-28T01:25:32;100466.66;;;5.09;100.00
67015;BME280;1033;52.560;13.374;2023-12-28T01:28:04;100465.81;;;5.08;100.00
67015;BME280;1033;52.560;13.374;2023-12-28T01:30:33;100462.03;;;5.03;100.00
67015;BME280;1033;52.560;13.374;2023-12-28T01:33:03;100461.41;;;4.93;100.00
67015;BME280;1033;52.560;13.374;2023-12-28T01:35:32;100462.72;;;4.97;100.00
67015;BME280;1033;52.560;13.374;2023-12-28T01:38:01;100449.97;;;4.99;100.00
67015;BME280;1033;52.560;13.374;2023-12-28T01:40:30;100451.19;;;5.19;100.00
67015;BME280;1033;52.560;13.374;2023-12-28T01:42:59;100438.28;;;5.22;100.00
67015;BME280;1033;52.560;13.374;2023-12-28T01:45:29;100444.41;;;5.31;100.00
67015;BME280;1033;52.560;13.374;2023-12-28T01:48:00;100426.69;;;5.22;100.00
67015;BME280;1033;52.560;13.374;2023-12-28T01:50:30;100420.06;;;5.33;100.00
67015;BME280;1033;52.560;13.374;2023-12-28T01:53:01;100413.59;;;5.27;100.00
67015;BME280;1033;52.560;13.374;2023-12-28T01:55:31;100407.25;;;5.20;100.00
67015;BME280;1033;52.560;13.374;2023-12-28T01:58:01;100390.50;;;5.41;99.96
67015;BME280;1033;52.560;13.374;2023-12-28T02:00:31;100381.97;;;5.37;100.00
67015;BME280;1033;52.560;13.374;2023-12-28T02:03:03;100380.50;;;5.49;99.82
67015;BME280;1033;52.560;13.374;2023-12-28T02:05:33;100366.00;;;5.58;98.73
67015;BME280;1033;52.560;13.374;2023-12-28T02:08:02;100357.50;;;5.69;98.01
67015;BME280;1033;52.560;13.374;2023-12-28T02:10:32;100388.25;;;5.82;96.15
67015;BME280;1033;52.560;13.374;2023-12-28T02:13:00;100406.91;;;5.98;95.01
67015;BME280;1033;52.560;13.374;2023-12-28T02:15:30;100411.34;;;6.05;94.10
67015;BME280;1033;52.560;13.374;2023-12-28T02:18:02;100418.13;;;6.16;92.78
67015;BME280;1033;52.560;13.374;2023-12-28T02:20:35;100415.16;;;6.26;91.58
67015;BME280;1033;52.560;13.374;2023-12-28T02:23:04;100439.63;;;6.31;91.32
67015;BME280;1033;52.560;13.374;2023-12-28T02:25:34;100436.47;;;6.42;89.85
67015;BME280;1033;52.560;13.374;2023-12-28T02:28:03;100435.06;;;6.46;89.64
67015;BME280;1033;52.560;13.374;2023-12-28T02:30:32;100437.38;;;6.49;89.15
67015;BME280;1033;52.560;13.374;2023-12-28T02:33:10;100441.38;;;6.68;87.62
67015;BME280;1033;52.560;13.374;2023-12-28T02:35:43;100433.81;;;6.78;87.46
67015;BME280;1033;52.560;13.374;2023-12-28T02:38:14;100423.25;;;6.76;86.40
67015;BME280;1033;52.560;13.374;2023-12-28T02:40:46;100421.44;;;6.98;85.63
67015;BME280;1033;52.560;13.374;2023-12-28T02:43:16;100420.94;;;7.09;83.80
67015;BME280;1033;52.560;13.374;2023-12-28T02:45:45;100409.25;;;7.02;82.96
67015;BME280;1033;52.560;13.374;2023-12-28T02:48:13;100423.06;;;7.14;82.51
67015;BME280;1033;52.560;13.374;2023-12-28T02:50:42;100421.97;;;7.29;80.32
67015;BME280;1033;52.560;13.374;2023-12-28T02:53:12;100425.94;;;7.33;80.62
67015;BME280;1033;52.560;13.374;2023-12-28T02:55:41;100436.19;;;7.45;80.13
67015;BME280;1033;52.560;13.374;2023-12-28T02:58:11;100423.75;;;7.43;78.20
67015;BME280;1033;52.560;13.374;2023-12-28T03:00:41;100428.50;;;7.63;77.65
67015;BME280;1033;52.560;13.374;2023-12-28T03:03:10;100412.84;;;7.73;75.74
67015;BME280;1033;52.560;13.374;2023-12-28T03:05:39;100418.38;;;7.93;73.19
67015;BME280;1033;52.560;13.374;2023-12-28T03:08:09;100418.97;;;7.95;72.00
67015;BME280;1033;52.560;13.374;2023-12-28T03:10:38;100418.88;;;8.09;71.83
67015;BME280;1033;52.560;13.374;2023-12-28T03:13:07;100419.78;;;8.23;71.16
67015;BME280;1033;52.560;13.374;2023-12-28T03:15:37;100419.69;;;8.38;70.44
67015;BME280;1033;52.560;13.374;2023-12-28T03:18:06;100414.31;;;8.38;69.18
67015;BME280;1033;52.560;13.374;2023-12-28T03:20:36;100422.84;;;8.41;69.09
67015;BME280;1033;52.560;13.374;2023-12-28T03:23:06;100416.03;;;8.45;70.15
67015;BME280;1033;52.560;13.374;2023-12-28T03:25:37;100413.78;;;8.55;69.95
67015;BME280;1033;52.560;13.374;2023-12-28T03:28:07;100419.56;;;8.52;68.59
67015;BME280;1033;52.560;13.374;2023-12-28T03:30:38;100425.38;;;8.49;69.03
67015;BME280;1033;52.560;13.374;2023-12-28T03:33:07;100417.56;;;8.67;68.86
67015;BME280;1033;52.560;13.374;2023-12-28T03:35:36;100417.16;;;8.64;68.68
67015;BME280;1033;52.560;13.374;2023-12-28T03:38:07;100429.84;;;8.70;68.64
67015;BME280;1033;52.560;13.374;2023-12-28T03:40:35;100425.84;;;8.59;70.52
67015;BME280;1033;52.560;13.374;2023-12-28T03:43:05;100427.94;;;8.64;70.76
67015;BME280;1033;52.560;13.374;2023-12-28T03:45:34;100430.47;;;8.79;69.39
67015;BME280;1033;52.560;13.374;2023-12-28T03:48:05;100437.31;;;8.75;69.96
67015;BME280;1033;52.560;13.374;2023-12-28T03:50:35;100430.47;;;8.79;72.42
67015;BME280;1033;52.560;13.374;2023-12-28T03:53:04;100431.28;;;8.66;72.22
67015;BME280;1033;52.560;13.374;2023-12-28T03:55:33;100427.69;;;8.59;74.53
67015;BME280;1033;52.560;13.374;2023-12-28T03:58:01;100429.09;;;8.42;76.50
67015;BME280;1033;52.560;13.374;2023-12-28T04:00:30;100432.38;;;8.44;75.29
67015;BME280;1033;52.560;13.374;2023-12-28T04:02:59;100427.78;;;8.38;74.67
67015;BME280;1033;52.560;13.374;2023-12-28T04:05:30;100431.59;;;8.50;74.73
67015;BME280;1033;52.560;13.374;2023-12-28T04:07:59;100421.66;;;8.57;73.53
67015;BME280;1033;52.560;13.374;2023-12-28T04:10:32;100422.94;;;8.61;74.10
67015;BME280;1033;52.560;13.374;2023-12-28T04:13:01;100427.28;;;8.62;73.15
67015;BME280;1033;52.560;13.374;2023-12-28T04:15:30;100436.66;;;8.66;73.98
67015;BME280;1033;52.560;13.374;2023-12-28T04:17:59;100433.59;;;8.76;73.11
67015;BME280;1033;52.560;13.374;2023-12-28T04:20:30;100453.31;;;8.76;73.63
67015;BME280;1033;52.560;13.374;2023-12-28T04:22:59;100458.72;;;8.76;72.42
67015;BME280;1033;52.560;13.374;2023-12-28T04:25:29;100446.28;;;8.88;71.80
67015;BME280;1033;52.560;13.374;2023-12-28T04:27:59;100452.91;;;8.79;71.84
67015;BME280;1033;52.560;13.374;2023-12-28T04:30:28;100460.34;;;8.77;71.26
67015;BME280;1033;52.560;13.374;2023-12-28T04:32:57;100449.78;;;8.82;72.42
67015;BME280;1033;52.560;13.374;2023-12-28T04:35:25;100466.06;;;8.95;71.23
67015;BME280;1033;52.560;13.374;2023-12-28T04:37:55;100471.00;;;8.92;71.01
67015;BME280;1033;52.560;13.374;2023-12-28T04:40:25;100452.94;;;8.92;70.26
67015;BME280;1033;52.560;13.374;2023-12-28T04:42:54;100449.25;;;9.00;69.27
67015;BME280;1033;52.560;13.374;2023-12-28T04:45:23;100439.44;;;8.92;69.02
67015;BME280;1033;52.560;13.374;2023-12-28T04:47:52;100440.69;;;8.90;69.73
67015;BME280;1033;52.560;13.374;2023-12-28T04:50:21;100433.66;;;9.02;69.43
67015;BME280;1033;52.560;13.374;2023-12-28T04:52:49;100447.19;;;9.08;68.94
67015;BME280;1033;52.560;13.374;2023-12-28T04:55:20;100451.50;;;8.96;68.94
67015;BME280;1033;52.560;13.374;2023-12-28T04:57:49;100453.63;;;9.07;68.41
67015;BME280;1033;52.560;13.374;2023-12-28T05:00:18;100455.06;;;9.03;68.13
67015;BME280;1033;52.560;13.374;2023-12-28T05:02:49;100452.56;;;8.95;68.73
67015;BME280;1033;52.560;13.374;2023-12-28T05:05:18;100463.59;;;9.07;68.94
67015;BME280;1033;52.560;13.374;2023-12-28T05:07:48;100468.19;;;9.13;67.92
67015;BME280;1033;52.560;13.374;2023-12-28T05:10:17;100468.00;;;9.14;68.57
67015;BME280;1033;52.560;13.374;2023-12-28T05:12:47;100470.22;;;9.04;69.03
67015;BME280;1033;52.560;13.374;2023-12-28T05:15:16;100480.13;;;8.91;69.31
67015;BME280;1033;52.560;13.374;2023-12-28T05:17:45;100482.84;;;8.97;69.40
67015;BME280;1033;52.560;13.374;2023-12-28T05:20:15;100490.13;;;8.97;69.01
67015;BME280;1033;52.560;13.374;2023-12-28T05:22:44;100498.47;;;9.08;69.40
67015;BME280;1033;52.560;13.374;2023-12-28T05:25:13;100482.84;;;8.97;69.28
67015;BME280;1033;52.560;13.374;2023-12-28T05:27:41;100492.84;;;9.03;69.79
67015;BME280;1033;52.560;13.374;2023-12-28T05:30:12;100483.28;;;8.94;69.72
67015;BME280;1033;52.560;13.374;2023-12-28T05:32:41;100472.41;;;8.81;70.58
67015;BME280;1033;52.560;13.374;2023-12-28T05:35:10;100485.28;;;8.79;70.78
67015;BME280;1033;52.560;13.374;2023-12-28T05:37:39;100498.22;;;8.90;70.43
67015;BME280;1033;52.560;13.374;2023-12-28T05:40:09;100505.63;;;8.82;71.17
67015;BME280;1033;52.560;13.374;2023-12-28T05:42:38;100522.28;;;8.92;70.75
67015;BME280;1033;52.560;13.374;2023-12-28T05:45:07;100517.41;;;8.74;72.31
67015;BME280;1033;52.560;13.374;2023-12-28T05:47:38;100518.06;;;8.76;72.11
67015;BME280;1033;52.560;13.374;2023-12-28T05:50:08;100523.66;;;8.81;72.49
67015;BME280;1033;52.560;13.374;2023-12-28T05:52:37;100516.84;;;8.85;72.48
67015;BME280;1033;52.560;13.374;2023-12-28T05:55:06;100527.38;;;8.73;73.60
67015;BME280;1033;52.560;13.374;2023-12-28T05:57:35;100545.03;;;8.76;73.80
67015;BME280;1033;52.560;13.374;2023-12-28T06:00:05;100549.53;;;8.69;74.44
67015;BME280;1033;52.560;13.374;2023-12-28T06:02:40;100547.50;;;8.71;74.87
67015;BME280;1033;52.560;13.374;2023-12-28T06:05:09;100550.34;;;8.63;75.43
67015;BME280;1033;52.560;13.374;2023-12-28T06:07:38;100548.13;;;8.73;76.12
67015;BME280;1033;52.560;13.374;2023-12-28T06:10:09;100546.06;;;8.75;76.42
67015;BME280;1033;52.560;13.374;2023-12-28T06:12:38;100548.31;;;8.71;77.71
67015;BME280;1033;52.560;13.374;2023-12-28T06:15:08;100542.56;;;8.81;77.99
67015;BME280;1033;52.560;13.374;2023-12-28T06:17:37;100553.31;;;8.75;79.06
67015;BME280;1033;52.560;13.374;2023-12-28T06:20:08;100550.44;;;8.83;79.59
67015;BME280;1033;52.560;13.374;2023-12-28T06:22:38;100542.97;;;8.78;80.90
67015;BME280;1033;52.560;13.374;2023-12-28T06:25:07;100543.84;;;8.85;81.19
67015;BME280;1033;52.560;13.374;2023-12-28T06:27:36;100550.69;;;8.88;81.85
67015;BME280;1033;52.560;13.374;2023-12-28T06:30:06;100545.94;;;8.90;82.07
67015;BME280;1033;52.560;13.374;2023-12-28T06:32:35;100542.22;;;8.97;82.24
67015;BME280;1033;52.560;13.374;2023-12-28T06:35:05;100545.47;;;8.86;82.94
67015;BME280;1033;52.560;13.374;2023-12-28T06:37:35;100534.31;;;8.89;83.05
67015;BME280;1033;52.560;13.374;2023-12-28T06:40:05;100542.16;;;8.84;83.88
67015;BME280;1033;52.560;13.374;2023-12-28T06:42:34;100541.75;;;8.81;84.17
67015;BME280;1033;52.560;13.374;2023-12-28T06:45:03;100544.63;;;8.79;84.18
67015;BME280;1033;52.560;13.374;2023-12-28T06:47:32;100554.41;;;8.80;84.58
67015;BME280;1033;52.560;13.374;2023-12-28T06:50:01;100544.63;;;8.79;84.92
67015;BME280;1033;52.560;13.374;2023-12-28T06:52:30;100545.06;;;8.83;84.69
67015;BME280;1033;52.560;13.374;2023-12-28T06:55:01;100544.41;;;8.74;85.25
67015;BME280;1033;52.560;13.374;2023-12-28T06:57:30;100542.56;;;8.81;84.77
67015;BME280;1033;52.560;13.374;2023-12-28T06:59:59;100537.50;;;8.65;85.55
67015;BME280;1033;52.560;13.374;2023-12-28T07:02:59;100548.34;;;8.78;85.54
67015;BME280;1033;52.560;13.374;2023-12-28T07:05:28;100546.19;;;8.67;85.60
67015;BME280;1033;52.560;13.374;2023-12-28T07:07:57;100552.78;;;8.58;86.39
67015;BME280;1033;52.560;13.374;2023-12-28T07:10:27;100554.28;;;8.67;85.85
67015;BME280;1033;52.560;13.374;2023-12-28T07:12:56;100561.13;;;8.63;85.86
67015;BME280;1033;52.560;13.374;2023-12-28T07:15:25;100562.38;;;8.67;85.74
67015;BME280;1033;52.560;13.374;2023-12-28T07:17:54;100579.03;;;8.70;85.68
67015;BME280;1033;52.560;13.374;2023-12-28T07:20:23;100577.56;;;8.68;86.06
67015;BME280;1033;52.560;13.374;2023-12-28T07:22:52;100568.97;;;8.58;86.62
67015;BME280;1033;52.560;13.374;2023-12-28T07:25:21;100577.31;;;8.63;85.82
67015;BME280;1033;52.560;13.374;2023-12-28T07:27:52;100574.38;;;8.58;86.38
67015;BME280;1033;52.560;13.374;2023-12-28T07:30:20;100572.13;;;8.61;86.15
67015;BME280;1033;52.560;13.374;2023-12-28T07:32:49;100577.06;;;8.58;86.78
67015;BME280;1033;52.560;13.374;2023-12-28T07:35:18;100579.97;;;8.56;86.78
67015;BME280;1033;52.560;13.374;2023-12-28T07:37:47;100583.59;;;8.70;86.58
67015;BME280;1033;52.560;13.374;2023-12-28T07:40:17;100580.91;;;8.70;86.53
67015;BME280;1033;52.560;13.374;2023-12-28T07:42:46;100578.19;;;8.70;86.90
67015;BME280;1033;52.560;13.374;2023-12-28T07:45:16;100584.78;;;8.61;87.55
67015;BME280;1033;52.560;13.374;2023-12-28T07:47:50;100594.88;;;8.80;86.49
67015;BME280;1033;52.560;13.374;2023-12-28T07:50:20;100594.88;;;8.80;86.66
67015;BME280;1033;52.560;13.374;2023-12-28T07:52:49;100600.03;;;8.75;86.97
67015;BME280;1033;52.560;13.374;2023-12-28T07:55:18;100603.81;;;8.81;87.33
67015;BME280;1033;52.560;13.374;2023-12-28T07:57:47;100605.19;;;8.77;87.49
67015;BME280;1033;52.560;13.374;2023-12-28T08:00:18;100597.41;;;8.88;86.83
67015;BME280;1033;52.560;13.374;2023-12-28T08:02:47;100611.91;;;8.87;87.36
67015;BME280;1033;52.560;13.374;2023-12-28T08:05:16;100613.44;;;8.96;86.75
67015;BME280;1033;52.560;13.374;2023-12-28T08:07:44;100619.47;;;8.98;87.00
67015;BME280;1033;52.560;13.374;2023-12-28T08:10:13;100615.50;;;8.94;86.83
67015;BME280;1033;52.560;13.374;2023-12-28T08:12:42;100630.06;;;9.00;86.75
67015;BME280;1033;52.560;13.374;2023-12-28T08:15:11;100626.78;;;9.04;86.36
67015;BME280;1033;52.560;13.374;2023-12-28T08:17:41;100629.91;;;9.08;86.41
67015;BME280;1033;52.560;13.374;2023-12-28T08:20:10;100632.41;;;9.09;86.37
67015;BME280;1033;52.560;13.374;2023-12-28T08:22:39;100629.72;;;9.09;86.36
67015;BME280;1033;52.560;13.374;2023-12-28T08:25:08;100627.03;;;9.16;85.96
67015;BME280;1033;52.560;13.374;2023-12-28T08:27:38;100634.53;;;9.21;85.94
67015;BME280;1033;52.560;13.374;2023-12-28T08:30:08;100639.31;;;9.19;85.50
67015;BME280;1033;52.560;13.374;2023-12-28T08:32:37;100626.84;;;9.18;85.52
67015;BME280;1033;52.560;13.374;2023-12-28T08:35:08;100629.97;;;9.14;85.40
67015;BME280;1033;52.560;13.374;2023-12-28T08:37:37;100632.06;;;9.26;84.31
67015;BME280;1033;52.560;13.374;2023-12-28T08:40:07;100637.47;;;9.19;84.48
67015;BME280;1033;52.560;13.374;2023-12-28T08:42:36;100634.16;;;9.24;84.98
67015;BME280;1033;52.560;13.374;2023-12-28T08:45:06;100633.91;;;9.19;84.58
67015;BME280;1033;52.560;13.374;2023-12-28T08:47:35;100632.06;;;9.19;84.70
67015;BME280;1033;52.560;13.374;2023-12-28T08:50:04;100636.44;;;9.27;84.02
67015;BME280;1033;52.560;13.374;2023-12-28T08:52:35;100632.91;;;9.20;84.19
67015;BME280;1033;52.560;13.374;2023-12-28T08:55:05;100640.81;;;9.28;84.02
67015;BME280;1033;52.560;13.374;2023-12-28T08:57:34;100631.69;;;9.29;84.09
67015;BME280;1033;52.560;13.374;2023-12-28T09:00:10;100623.00;;;9.33;83.00
67015;BME280;1033;52.560;13.374;2023-12-28T09:02:42;100645.47;;;9.47;82.75
67015;BME280;1033;52.560;13.374;2023-12-28T09:05:11;100646.31;;;9.54;82.51
67015;BME280;1033;52.560;13.374;2023-12-28T09:07:42;100661.28;;;9.50;82.28
67015;BME280;1033;52.560;13.374;2023-12-28T09:10:11;100658.81;;;9.55;81.89
67015;BME280;1033;52.560;13.374;2023-12-28T09:12:41;100666.91;;;9.48;82.23
67015;BME280;1033;52.560;13.374;2023-12-28T09:15:10;100668.53;;;9.49;82.29
67015;BME280;1033;52.560;13.374;2023-12-28T09:17:39;100671.47;;;9.48;82.17
67015;BME280;1033;52.560;13.374;2023-12-28T09:20:09;100666.91;;;9.48;82.13
67015;BME280;1033;52.560;13.374;2023-12-28T09:22:41;100662.56;;;9.60;82.02
67015;BME280;1033;52.560;13.374;2023-12-28T09:25:10;100655.91;;;9.56;81.99
67015;BME280;1033;52.560;13.374;2023-12-28T09:27:38;100653.03;;;9.58;81.42
67015;BME280;1033;52.560;13.374;2023-12-28T09:30:08;100649.69;;;9.56;82.17
67015;BME280;1033;52.560;13.374;2023-12-28T09:32:37;100645.91;;;9.50;82.14
67015;BME280;1033;52.560;13.374;2023-12-28T09:35:07;100646.75;;;9.51;81.99
67015;BME280;1033;52.560;13.374;2023-12-28T09:37:35;100656.75;;;9.57;82.15
67015;BME280;1033;52.560;13.374;2023-12-28T09:40:07;100638.59;;;9.44;82.30
67015;BME280;1033;52.560;13.374;2023-12-28T09:42:43;100653.34;;;9.42;82.62
67015;BME280;1033;52.560;13.374;2023-12-28T09:45:17;100641.31;;;9.44;82.59
67015;BME280;1033;52.560;13.374;2023-12-28T09:47:48;100642.13;;;9.38;82.51
67015;BME280;1033;52.560;13.374;2023-12-28T09:50:19;100632.41;;;9.44;82.18
67015;BME280;1033;52.560;13.374;2023-12-28T09:52:48;100641.53;;;9.43;82.54
67015;BME280;1033;52.560;13.374;2023-12-28T09:55:18;100637.16;;;9.42;82.72
67015;BME280;1033;52.560;13.374;2023-12-28T09:57:47;100638.72;;;9.30;83.09
67015;BME280;1033;52.560;13.374;2023-12-28T10:00:17;100634.16;;;9.24;83.80
67015;BME280;1033;52.560;13.374;2023-12-28T10:02:45;100630.88;;;9.35;82.97
67015;BME280;1033;52.560;13.374;2023-12-28T10:05:15;100636.50;;;9.40;82.36
67015;BME280;1033;52.560;13.374;2023-12-28T10:07:44;100640.03;;;9.40;83.08
67015;BME280;1033;52.560;13.374;2023-12-28T10:10:19;100629.47;;;9.39;82.83
67015;BME280;1033;52.560;13.374;2023-12-28T10:12:50;100627.56;;;9.33;83.19
67015;BME280;1033;52.560;13.374;2023-12-28T10:15:19;100623.81;;;9.34;83.40
67015;BME280;1033;52.560;13.374;2023-12-28T10:17:48;100624.28;;;9.44;83.04
67015;BME280;1033;52.560;13.374;2023-12-28T10:20:17;100624.72;;;9.54;82.30
67015;BME280;1033;52.560;13.374;2023-12-28T10:22:46;100630.19;;;9.74;81.87
67015;BME280;1033;52.560;13.374;2023-12-28T10:25:16;100627.66;;;9.59;82.15
67015;BME280;1033;52.560;13.374;2023-12-28T10:27:49;100631.22;;;9.66;81.96
67015;BME280;1033;52.560;13.374;2023-12-28T10:30:19;100632.28;;;9.78;81.47
67015;BME280;1033;52.560;13.374;2023-12-28T10:32:49;100630.66;;;9.84;80.95
67015;BME280;1033;52.560;13.374;2023-12-28T10:35:18;100626.50;;;9.88;80.84
67015;BME280;1033;52.560;13.374;2023-12-28T10:37:49;100616.53;;;9.95;80.75
67015;BME280;1033;52.560;13.374;2023-12-28T10:40:21;100618.84;;;10.04;80.03
67015;BME280;1033;52.560;13.374;2023-12-28T10:42:54;100622.81;;;10.09;80.37
67015;BME280;1033;52.560;13.374;2023-12-28T10:45:25;100626.81;;;10.26;79.29
67015;BME280;1033;52.560;13.374;2023-12-28T10:47:58;100627.84;;;10.25;78.73
67015;BME280;1033;52.560;13.374;2023-12-28T10:50:33;100625.75;;;10.27;78.54
67015;BME280;1033;52.560;13.374;2023-12-28T10:53:15;100627.44;;;10.41;78.63
67015;BME280;1033;52.560;13.374;2023-12-28T10:55:58;100627.44;;;10.48;77.50
67015;BME280;1033;52.560;13.374;2023-12-28T10:58:37;100634.53;;;10.35;77.83
67015;BME280;1033;52.560;13.374;2023-12-28T11:01:09;100632.44;;;10.44;77.50
67015;BME280;1033;52.560;13.374;2023-12-28T11:03:41;100635.97;;;10.38;77.67
67015;BME280;1033;52.560;13.374;2023-12-28T11:06:13;100632.03;;;10.47;77.66
67015;BME280;1033;52.560;13.374;2023-12-28T11:08:47;100624.97;;;10.59;76.30
67015;BME280;1033;52.560;13.374;2023-12-28T11:11:19;100634.94;;;10.78;76.18
67015;BME280;1033;52.560;13.374;2023-12-28T11:13:50;100634.09;;;10.71;75.73
67015;BME280;1033;52.560;13.374;2023-12-28T11:16:20;100633.69;;;10.87;75.04
67015;BME280;1033;52.560;13.374;2023-12-28T11:18:50;100637.63;;;10.98;74.07
67015;BME280;1033;52.560;13.374;2023-12-28T11:21:21;100629.06;;;10.95;74.09
67015;BME280;1033;52.560;13.374;2023-12-28T11:23:51;100640.72;;;11.08;74.05
67015;BME280;1033;52.560;13.374;2023-12-28T11:26:21;100626.16;;;11.03;74.67
67015;BME280;1033;52.560;13.374;2023-12-28T11:29:00;100623.88;;;10.86;74.11
67015;BME280;1033;52.560;13.374;2023-12-28T11:31:32;100616.81;;;10.79;74.56
67015;BME280;1033;52.560;13.374;2023-12-28T11:34:05;100616.00;;;10.78;74.30
67015;BME280;1033;52.560;13.374;2023-12-28T11:36:46;100610.78;;;10.70;74.68
67015;BME280;1033;52.560;13.374;2023-12-28T11:39:28;100620.75;;;10.70;74.88
67015;BME280;1033;52.560;13.374;2023-12-28T11:42:02;100617.88;;;10.78;75.21
67015;BME280;1033;52.560;13.374;2023-12-28T11:44:38;100616.19;;;10.77;74.69
67015;BME280;1033;52.560;13.374;2023-12-28T11:47:14;100607.03;;;10.78;74.21
67015;BME280;1033;52.560;13.374;2023-12-28T11:49:44;100612.03;;;10.87;73.91
67015;BME280;1033;52.560;13.374;2023-12-28T11:52:23;100594.09;;;10.86;73.69
67015;BME280;1033;52.560;13.374;2023-12-28T11:54:53;100587.66;;;10.81;74.08
67015;BME280;1033;52.560;13.374;2023-12-28T11:57:22;100583.28;;;10.93;73.47
67015;BME280;1033;52.560;13.374;2023-12-28T11:59:56;100573.69;;;10.90;73.84
67015;BME280;1033;52.560;13.374;2023-12-28T12:02:26;100567.88;;;10.94;73.09
67015;BME280;1033;52.560;13.374;2023-12-28T12:04:55;100569.31;;;10.89;73.05
67015;BME280;1033;52.560;13.374;2023-12-28T12:07:25;100560.34;;;10.96;72.78
67015;BME280;1033;52.560;13.374;2023-12-28T12:09:57;100543.69;;;10.99;72.56
67015;BME280;1033;52.560;13.374;2023-12-28T12:12:27;100551.00;;;10.85;72.64
67015;BME280;1033;52.560;13.374;2023-12-28T12:14:57;100560.75;;;10.99;72.13
67015;BME280;1033;52.560;13.374;2023-12-28T12:17:26;100548.03;;;11.00;72.14
67015;BME280;1033;52.560;13.374;2023-12-28T12:19:56;100545.78;;;10.97;72.32
67015;BME280;1033;52.560;13.374;2023-12-28T12:22:26;100555.31;;;11.06;71.27
67015;BME280;1033;52.560;13.374;2023-12-28T12:24:57;100555.72;;;11.09;71.12
67015;BME280;1033;52.560;13.374;2023-12-28T12:27:29;100553.06;;;11.03;71.40
67015;BME280;1033;52.560;13.374;2023-12-28T12:29:59;100559.50;;;11.08;71.08
67015;BME280;1033;52.560;13.374;2023-12-28T12:32:28;100545.13;;;11.08;71.06
67015;BME280;1033;52.560;13.374;2023-12-28T12:34:57;100556.53;;;11.16;71.00
67015;BME280;1033;52.560;13.374;2023-12-28T12:37:26;100558.59;;;11.21;70.09
67015;BME280;1033;52.560;13.374;2023-12-28T12:39:55;100563.56;;;11.24;70.68
67015;BME280;1033;52.560;13.374;2023-12-28T12:42:24;100564.66;;;11.23;70.57
67015;BME280;1033;52.560;13.374;2023-12-28T12:44:54;100555.25;;;11.19;70.76
67015;BME280;1033;52.560;13.374;2023-12-28T12:47:24;100546.94;;;11.20;70.49
67015;BME280;1033;52.560;13.374;2023-12-28T12:49:55;100562.34;;;11.20;70.73
67015;BME280;1033;52.560;13.374;2023-12-28T12:52:24;100555.06;;;11.14;70.85
67015;BME280;1033;52.560;13.374;2023-12-28T12:54:55;100556.53;;;11.16;70.81
67015;BME280;1033;52.560;13.374;2023-12-28T12:57:25;100551.97;;;11.17;70.94
67015;BME280;1033;52.560;13.374;2023-12-28T12:59:54;100567.97;;;11.18;71.10
67015;BME280;1033;52.560;13.374;2023-12-28T13:02:25;100565.50;;;11.17;70.66
67015;BME280;1033;52.560;13.374;2023-12-28T13:04:55;100559.91;;;11.05;71.20
67015;BME280;1033;52.560;13.374;2023-12-28T13:07:23;100558.22;;;11.17;71.64
67015;BME280;1033;52.560;13.374;2023-12-28T13:09:52;100569.63;;;11.19;71.04
67015;BME280;1033;52.560;13.374;2023-12-28T13:12:21;100554.47;;;11.12;71.49
67015;BME280;1033;52.560;13.374;2023-12-28T13:14:50;100554.03;;;11.15;71.55